sensor_id;sensor_type;location;lat;lon;timestamp;pressure;altitude;pressure_sealevel;temperature;humidity
3254;BME280;1639;42.804;23.342;2023-04-30T00:01:42;73075.69;;;-148.52;73.43
3254;BME280;1639;42.804;23.342;2023-04-30T00:04:08;73073.63;;;-148.52;73.92
3254;BME280;1639;42.804;23.342;2023-04-30T00:06:33;73075.69;;;-148.52;74.03
3254;BME280;1639;42.804;23.342;2023-04-30T00:08:58;73083.97;;;-148.52;74.69
3254;BME280;1639;42.804;23.342;2023-04-30T00:11:24;73110.84;;;-148.52;77.74
3254;BME280;1639;42.804;23.342;2023-04-30T00:13:52;73133.59;;;-148.52;78.62
3254;BME280;1639;42.804;23.342;2023-04-30T00:16:18;73121.19;;;-148.52;78.98
3254;BME280;1639;42.804;23.342;2023-04-30T00:18:43;73115.00;;;-148.52;77.73
3254;BME280;1639;42.804;23.342;2023-04-30T00:21:09;73106.72;;;-148.52;76.12
3254;BME280;1639;42.804;23.342;2023-04-30T00:23:34;73106.72;;;-148.52;76.78
3254;BME280;1639;42.804;23.342;2023-04-30T00:26:00;73108.78;;;-148.52;76.59
3254;BME280;1639;42.804;23.342;2023-04-30T00:28:25;73112.91;;;-148.52;78.84
3254;BME280;1639;42.804;23.342;2023-04-30T00:30:51;73112.91;;;-148.52;79.10
3254;BME280;1639;42.804;23.342;2023-04-30T00:33:16;73123.25;;;-148.52;81.79
3254;BME280;1639;42.804;23.342;2023-04-30T00:35:42;73098.44;;;-148.52;80.35
3254;BME280;1639;42.804;23.342;2023-04-30T00:38:07;73094.31;;;-148.52;78.43
3254;BME280;1639;42.804;23.342;2023-04-30T00:40:34;73096.38;;;-148.52;76.14
3254;BME280;1639;42.804;23.342;2023-04-30T00:43:00;73104.66;;;-148.52;74.94
3254;BME280;1639;42.804;23.342;2023-04-30T00:45:25;73096.38;;;-148.52;75.17
3254;BME280;1639;42.804;23.342;2023-04-30T00:47:51;73108.78;;;-148.52;74.98
3254;BME280;1639;42.804;23.342;2023-04-30T00:50:16;73117.06;;;-148.52;75.25
3254;BME280;1639;42.804;23.342;2023-04-30T00:52:42;73104.66;;;-148.52;75.79
3254;BME280;1639;42.804;23.342;2023-04-30T00:55:10;73112.91;;;-148.52;76.68
3254;BME280;1639;42.804;23.342;2023-04-30T00:57:37;73125.34;;;-148.52;77.34
3254;BME280;1639;42.804;23.342;2023-04-30T01:00:02;73125.34;;;-148.52;77.69
3254;BME280;1639;42.804;23.342;2023-04-30T01:02:29;73121.19;;;-148.52;76.49
3254;BME280;1639;42.804;23.342;2023-04-30T01:04:56;73135.66;;;-148.52;75.02
3254;BME280;1639;42.804;23.342;2023-04-30T01:07:23;73146.00;;;-148.52;74.11
3254;BME280;1639;42.804;23.342;2023-04-30T01:09:48;73166.69;;;-148.52;72.11
3254;BME280;1639;42.804;23.342;2023-04-30T01:17:44;73203.94;;;-148.52;74.13
3254;BME280;1639;42.804;23.342;2023-04-30T01:20:13;73216.34;;;-148.52;73.99
3254;BME280;1639;42.804;23.342;2023-04-30T01:22:51;73222.53;;;-148.52;74.29
3254;BME280;1639;42.804;23.342;2023-04-30T01:25:34;73226.69;;;-148.52;74.80
3254;BME280;1639;42.804;23.342;2023-04-30T01:30:37;73212.19;;;-148.52;74.01
3254;BME280;1639;42.804;23.342;2023-04-30T01:33:04;73212.19;;;-148.52;73.06
3254;BME280;1639;42.804;23.342;2023-04-30T01:36:01;73224.63;;;-148.52;72.91
3254;BME280;1639;42.804;23.342;2023-04-30T01:41:28;73237.03;;;-148.52;74.17
3254;BME280;1639;42.804;23.342;2023-04-30T01:44:10;73245.28;;;-148.52;76.33
3254;BME280;1639;42.804;23.342;2023-04-30T01:46:39;73255.63;;;-148.52;81.17
3254;BME280;1639;42.804;23.342;2023-04-30T01:49:19;73274.25;;;-148.52;86.72
3254;BME280;1639;42.804;23.342;2023-04-30T01:51:51;73280.47;;;-148.52;100.00
3254;BME280;1639;42.804;23.342;2023-04-30T01:54:32;73280.47;;;-148.52;100.00
3254;BME280;1639;42.804;23.342;2023-04-30T01:57:12;73274.25;;;-148.52;100.00
3254;BME280;1639;42.804;23.342;2023-04-30T01:59:40;73257.72;;;-148.52;100.00
3254;BME280;1639;42.804;23.342;2023-04-30T02:02:07;73245.28;;;-148.52;100.00
3254;BME280;1639;42.804;23.342;2023-04-30T02:04:32;73245.28;;;-148.52;100.00
3254;BME280;1639;42.804;23.342;2023-04-30T02:06:58;73237.03;;;-148.52;100.00
3254;BME280;1639;42.804;23.342;2023-04-30T02:09:23;73232.88;;;-148.52;100.00
3254;BME280;1639;42.804;23.342;2023-04-30T02:11:49;73218.41;;;-148.52;96.96
3254;BME280;1639;42.804;23.342;2023-04-30T02:14:15;73226.69;;;-148.52;94.27
3254;BME280;1639;42.804;23.342;2023-04-30T02:16:40;73241.16;;;-148.52;95.18
3254;BME280;1639;42.804;23.342;2023-04-30T02:19:06;73249.44;;;-148.52;98.67
3254;BME280;1639;42.804;23.342;2023-04-30T02:21:31;73261.84;;;-148.52;100.00
3254;BME280;1639;42.804;23.342;2023-04-30T02:23:56;73263.91;;;-148.52;100.00
3254;BME280;1639;42.804;23.342;2023-04-30T02:26:22;73253.56;;;-148.52;100.00
3254;BME280;1639;42.804;23.342;2023-04-30T02:28:47;73253.56;;;-148.52;97.41
3254;BME280;1639;42.804;23.342;2023-04-30T02:31:13;73237.03;;;-148.52;96.52
3254;BME280;1639;42.804;23.342;2023-04-30T02:33:38;73239.09;;;-148.52;94.91
3254;BME280;1639;42.804;23.342;2023-04-30T02:36:04;73241.16;;;-148.52;94.77
3254;BME280;1639;42.804;23.342;2023-04-30T02:38:29;73247.38;;;-148.52;92.27
3254;BME280;1639;42.804;23.342;2023-04-30T02:40:54;73247.38;;;-148.52;90.32
3254;BME280;1639;42.804;23.342;2023-04-30T02:43:20;73251.50;;;-148.52;90.34
3254;BME280;1639;42.804;23.342;2023-04-30T02:45:45;73261.84;;;-148.52;90.22
3254;BME280;1639;42.804;23.342;2023-04-30T02:48:11;73253.56;;;-148.52;89.81
3254;BME280;1639;42.804;23.342;2023-04-30T02:50:36;73243.22;;;-148.52;89.37
3254;BME280;1639;42.804;23.342;2023-04-30T02:53:02;73255.63;;;-148.52;89.17
3254;BME280;1639;42.804;23.342;2023-04-30T02:55:27;73247.38;;;-148.52;88.88
3254;BME280;1639;42.804;23.342;2023-04-30T02:57:52;73239.09;;;-148.52;89.15
3254;BME280;1639;42.804;23.342;2023-04-30T03:00:18;73253.56;;;-148.52;88.50
3254;BME280;1639;42.804;23.342;2023-04-30T03:02:43;73251.50;;;-148.52;88.25
3254;BME280;1639;42.804;23.342;2023-04-30T03:05:10;73255.63;;;-148.52;88.22
3254;BME280;1639;42.804;23.342;2023-04-30T03:07:35;73272.19;;;-148.52;92.35
3254;BME280;1639;42.804;23.342;2023-04-30T03:10:00;73282.53;;;-148.52;93.40
3254;BME280;1639;42.804;23.342;2023-04-30T03:12:26;73297.00;;;-148.52;97.65
3254;BME280;1639;42.804;23.342;2023-04-30T03:14:51;73303.22;;;-148.52;100.00
3254;BME280;1639;42.804;23.342;2023-04-30T03:17:17;73292.88;;;-148.52;100.00
3254;BME280;1639;42.804;23.342;2023-04-30T03:19:43;73282.53;;;-148.52;100.00
3254;BME280;1639;42.804;23.342;2023-04-30T03:22:09;73286.66;;;-148.52;100.00
3254;BME280;1639;42.804;23.342;2023-04-30T03:24:35;73294.94;;;-148.52;100.00
3254;BME280;1639;42.804;23.342;2023-04-30T03:27:00;73307.34;;;-148.52;100.00
3254;BME280;1639;42.804;23.342;2023-04-30T03:29:26;73319.75;;;-148.52;100.00
3254;BME280;1639;42.804;23.342;2023-04-30T03:31:51;73352.84;;;-148.52;100.00
3254;BME280;1639;42.804;23.342;2023-04-30T03:34:16;73373.53;;;-148.52;100.00
3254;BME280;1639;42.804;23.342;2023-04-30T03:36:42;73383.88;;;-148.52;100.00
3254;BME280;1639;42.804;23.342;2023-04-30T03:39:07;73381.81;;;-148.52;100.00
3254;BME280;1639;42.804;23.342;2023-04-30T03:41:34;73371.47;;;-148.52;100.00
3254;BME280;1639;42.804;23.342;2023-04-30T03:43:59;73359.06;;;-148.52;100.00
3254;BME280;1639;42.804;23.342;2023-04-30T03:46:25;73354.91;;;-148.52;100.00
3254;BME280;1639;42.804;23.342;2023-04-30T03:48:50;73352.84;;;-148.52;100.00
3254;BME280;1639;42.804;23.342;2023-04-30T03:51:17;73340.44;;;-148.52;100.00
3254;BME280;1639;42.804;23.342;2023-04-30T03:53:43;73336.31;;;-148.52;100.00
3254;BME280;1639;42.804;23.342;2023-04-30T03:56:09;73317.69;;;-148.52;100.00
3254;BME280;1639;42.804;23.342;2023-04-30T03:58:34;73307.34;;;-148.52;100.00
3254;BME280;1639;42.804;23.342;2023-04-30T04:01:00;73290.81;;;-148.52;100.00
3254;BME280;1639;42.804;23.342;2023-04-30T04:03:26;73299.06;;;-148.52;100.00
3254;BME280;1639;42.804;23.342;2023-04-30T04:05:51;73282.53;;;-148.52;100.00
3254;BME280;1639;42.804;23.342;2023-04-30T04:08:16;73272.19;;;-148.52;100.00
3254;BME280;1639;42.804;23.342;2023-04-30T04:10:42;73278.38;;;-148.52;100.00
3254;BME280;1639;42.804;23.342;2023-04-30T04:13:08;73274.25;;;-148.52;100.00
3254;BME280;1639;42.804;23.342;2023-04-30T04:15:33;73265.97;;;-148.52;100.00
3254;BME280;1639;42.804;23.342;2023-04-30T04:17:59;73253.56;;;-148.52;100.00
3254;BME280;1639;42.804;23.342;2023-04-30T04:20:24;73249.44;;;-148.52;100.00
3254;BME280;1639;42.804;23.342;2023-04-30T04:22:50;73226.69;;;-148.52;100.00
3254;BME280;1639;42.804;23.342;2023-04-30T04:25:15;73237.03;;;-148.52;99.74
3254;BME280;1639;42.804;23.342;2023-04-30T04:27:42;73243.22;;;-148.52;100.00
3254;BME280;1639;42.804;23.342;2023-04-30T04:30:08;73243.22;;;-148.52;100.00
3254;BME280;1639;42.804;23.342;2023-04-30T04:32:33;73224.63;;;-148.52;100.00
3254;BME280;1639;42.804;23.342;2023-04-30T04:35:12;73220.47;;;-148.52;100.00
3254;BME280;1639;42.804;23.342;2023-04-30T04:37:38;73220.47;;;-148.52;100.00
3254;BME280;1639;42.804;23.342;2023-04-30T04:40:03;73261.84;;;-148.52;100.00
3254;BME280;1639;42.804;23.342;2023-04-30T04:42:29;73259.78;;;-148.52;100.00
3254;BME280;1639;42.804;23.342;2023-04-30T04:44:55;73268.03;;;-148.52;100.00
3254;BME280;1639;42.804;23.342;2023-04-30T04:47:20;73241.16;;;-148.52;100.00
3254;BME280;1639;42.804;23.342;2023-04-30T04:49:46;73237.03;;;-148.52;100.00
3254;BME280;1639;42.804;23.342;2023-04-30T04:52:12;73224.63;;;-148.52;100.00
3254;BME280;1639;42.804;23.342;2023-04-30T04:54:37;73222.53;;;-148.52;100.00
3254;BME280;1639;42.804;23.342;2023-04-30T04:57:03;73210.13;;;-148.52;100.00
3254;BME280;1639;42.804;23.342;2023-04-30T04:59:28;73208.06;;;-148.52;100.00
3254;BME280;1639;42.804;23.342;2023-04-30T05:01:54;73203.94;;;-148.52;100.00
3254;BME280;1639;42.804;23.342;2023-04-30T05:04:20;73203.94;;;-148.52;100.00
3254;BME280;1639;42.804;23.342;2023-04-30T05:06:46;73181.19;;;-148.52;98.50
3254;BME280;1639;42.804;23.342;2023-04-30T05:09:11;73162.56;;;-148.52;90.75
3254;BME280;1639;42.804;23.342;2023-04-30T05:11:37;73141.88;;;-148.52;86.27
3254;BME280;1639;42.804;23.342;2023-04-30T05:14:02;73125.34;;;-148.52;82.07
3254;BME280;1639;42.804;23.342;2023-04-30T05:16:28;73129.47;;;-148.52;82.52
3254;BME280;1639;42.804;23.342;2023-04-30T05:18:53;73110.84;;;-148.52;82.84
3254;BME280;1639;42.804;23.342;2023-04-30T05:21:18;73096.38;;;-148.52;80.52
3254;BME280;1639;42.804;23.342;2023-04-30T05:23:44;73096.38;;;-148.52;77.51
3254;BME280;1639;42.804;23.342;2023-04-30T05:26:09;73094.31;;;-148.52;78.40
3254;BME280;1639;42.804;23.342;2023-04-30T05:28:35;73092.25;;;-148.52;79.19
3254;BME280;1639;42.804;23.342;2023-04-30T05:31:00;73079.84;;;-148.52;79.17
3254;BME280;1639;42.804;23.342;2023-04-30T05:33:25;73075.69;;;-148.52;80.57
3254;BME280;1639;42.804;23.342;2023-04-30T05:35:51;73075.69;;;-148.52;81.41
3254;BME280;1639;42.804;23.342;2023-04-30T05:38:16;73059.16;;;-148.52;80.78
3254;BME280;1639;42.804;23.342;2023-04-30T05:40:42;73050.88;;;-148.52;77.51
3254;BME280;1639;42.804;23.342;2023-04-30T05:43:07;73052.94;;;-148.52;78.02
3254;BME280;1639;42.804;23.342;2023-04-30T05:45:32;73028.13;;;-148.52;76.29
3254;BME280;1639;42.804;23.342;2023-04-30T05:47:58;73052.94;;;-148.52;79.67
3254;BME280;1639;42.804;23.342;2023-04-30T05:50:23;73036.41;;;-148.52;79.71
3254;BME280;1639;42.804;23.342;2023-04-30T05:52:49;73024.00;;;-148.52;78.48
3254;BME280;1639;42.804;23.342;2023-04-30T05:55:14;73017.78;;;-148.52;78.22
3254;BME280;1639;42.804;23.342;2023-04-30T05:57:40;73028.13;;;-148.52;78.35
3254;BME280;1639;42.804;23.342;2023-04-30T06:00:05;73036.41;;;-148.52;78.21
3254;BME280;1639;42.804;23.342;2023-04-30T06:02:31;73030.19;;;-148.52;80.17
3254;BME280;1639;42.804;23.342;2023-04-30T06:04:57;73019.84;;;-148.52;79.04
3254;BME280;1639;42.804;23.342;2023-04-30T06:07:22;73017.78;;;-148.52;79.65
3254;BME280;1639;42.804;23.342;2023-04-30T06:09:47;73011.56;;;-148.52;80.68
3254;BME280;1639;42.804;23.342;2023-04-30T06:12:13;72997.09;;;-148.52;79.16
3254;BME280;1639;42.804;23.342;2023-04-30T06:14:38;72978.50;;;-148.52;78.35
3254;BME280;1639;42.804;23.342;2023-04-30T06:17:07;72939.19;;;-148.52;78.25
3254;BME280;1639;42.804;23.342;2023-04-30T06:19:32;72889.56;;;-148.52;74.54
3254;BME280;1639;42.804;23.342;2023-04-30T06:21:58;72873.00;;;-148.52;71.58
3254;BME280;1639;42.804;23.342;2023-04-30T06:24:23;72850.25;;;-148.52;71.30
3254;BME280;1639;42.804;23.342;2023-04-30T06:26:51;72844.06;;;-148.52;70.54
3254;BME280;1639;42.804;23.342;2023-04-30T06:29:17;72815.09;;;-148.52;69.08
3254;BME280;1639;42.804;23.342;2023-04-30T06:31:42;72790.28;;;-148.52;64.86
3254;BME280;1639;42.804;23.342;2023-04-30T06:34:07;72757.19;;;-148.52;63.81
3254;BME280;1639;42.804;23.342;2023-04-30T06:36:33;72713.75;;;-148.52;62.52
3254;BME280;1639;42.804;23.342;2023-04-30T06:38:58;72662.06;;;-148.52;61.70
3254;BME280;1639;42.804;23.342;2023-04-30T06:41:24;72591.75;;;-148.52;65.56
3254;BME280;1639;42.804;23.342;2023-04-30T06:43:49;72546.25;;;-148.52;62.13
3254;BME280;1639;42.804;23.342;2023-04-30T06:46:15;72525.56;;;-148.52;56.67
3254;BME280;1639;42.804;23.342;2023-04-30T06:48:40;72498.69;;;-148.52;54.34
3254;BME280;1639;42.804;23.342;2023-04-30T06:51:05;72471.81;;;-148.52;53.53
3254;BME280;1639;42.804;23.342;2023-04-30T06:53:31;72447.00;;;-148.52;54.15
3254;BME280;1639;42.804;23.342;2023-04-30T06:55:56;72451.13;;;-148.52;53.94
3254;BME280;1639;42.804;23.342;2023-04-30T06:58:22;72451.13;;;-148.52;53.01
3254;BME280;1639;42.804;23.342;2023-04-30T07:00:48;72447.00;;;-148.52;53.10
3254;BME280;1639;42.804;23.342;2023-04-30T07:03:13;72484.22;;;-148.52;53.33
3254;BME280;1639;42.804;23.342;2023-04-30T07:05:38;72513.16;;;-148.52;54.87
3254;BME280;1639;42.804;23.342;2023-04-30T07:08:05;72509.03;;;-148.52;54.39
3254;BME280;1639;42.804;23.342;2023-04-30T07:10:31;72496.63;;;-148.52;55.15
3254;BME280;1639;42.804;23.342;2023-04-30T07:12:56;72469.75;;;-148.52;54.98
3254;BME280;1639;42.804;23.342;2023-04-30T07:15:22;72424.25;;;-148.52;54.22
3254;BME280;1639;42.804;23.342;2023-04-30T07:17:48;72413.91;;;-148.52;52.82
3254;BME280;1639;42.804;23.342;2023-04-30T07:20:13;72409.78;;;-148.52;54.39
3254;BME280;1639;42.804;23.342;2023-04-30T07:22:40;72397.38;;;-148.52;53.49
3254;BME280;1639;42.804;23.342;2023-04-30T07:25:06;72389.09;;;-148.52;52.13
3254;BME280;1639;42.804;23.342;2023-04-30T07:27:31;72389.09;;;-148.52;50.64
3254;BME280;1639;42.804;23.342;2023-04-30T07:29:57;72380.81;;;-148.52;52.09
3254;BME280;1639;42.804;23.342;2023-04-30T07:32:22;72376.69;;;-148.52;52.00
3254;BME280;1639;42.804;23.342;2023-04-30T07:34:51;72387.03;;;-148.52;52.69
3254;BME280;1639;42.804;23.342;2023-04-30T07:37:17;72389.09;;;-148.52;52.61
3254;BME280;1639;42.804;23.342;2023-04-30T07:39:43;72380.81;;;-148.52;51.91
3254;BME280;1639;42.804;23.342;2023-04-30T07:42:08;72310.50;;;-148.52;53.50
3254;BME280;1639;42.804;23.342;2023-04-30T07:44:33;72229.88;;;-148.52;49.71
3254;BME280;1639;42.804;23.342;2023-04-30T07:46:59;72207.13;;;-148.52;50.68
3254;BME280;1639;42.804;23.342;2023-04-30T07:49:24;72203.00;;;-148.52;50.16
3254;BME280;1639;42.804;23.342;2023-04-30T07:51:50;72198.84;;;-148.52;48.09
3254;BME280;1639;42.804;23.342;2023-04-30T07:54:16;72205.06;;;-148.52;47.17
3254;BME280;1639;42.804;23.342;2023-04-30T07:56:41;72244.34;;;-148.52;46.90
3254;BME280;1639;42.804;23.342;2023-04-30T07:59:07;72258.81;;;-148.52;48.17
3254;BME280;1639;42.804;23.342;2023-04-30T08:01:32;72293.97;;;-148.52;48.84
3254;BME280;1639;42.804;23.342;2023-04-30T08:03:57;72306.38;;;-148.52;48.96
3254;BME280;1639;42.804;23.342;2023-04-30T08:06:24;72318.78;;;-148.52;50.16
3254;BME280;1639;42.804;23.342;2023-04-30T08:08:49;72341.53;;;-148.52;51.17
3254;BME280;1639;42.804;23.342;2023-04-30T08:11:14;72343.59;;;-148.52;52.52
3254;BME280;1639;42.804;23.342;2023-04-30T08:13:40;72343.59;;;-148.52;54.89
3254;BME280;1639;42.804;23.342;2023-04-30T08:16:06;72335.31;;;-148.52;55.32
3254;BME280;1639;42.804;23.342;2023-04-30T08:18:32;72327.06;;;-148.52;54.92
3254;BME280;1639;42.804;23.342;2023-04-30T08:20:58;72320.84;;;-148.52;55.35
3254;BME280;1639;42.804;23.342;2023-04-30T08:23:24;72314.66;;;-148.52;55.34
3254;BME280;1639;42.804;23.342;2023-04-30T08:25:49;72316.72;;;-148.52;55.82
3254;BME280;1639;42.804;23.342;2023-04-30T08:28:15;72302.25;;;-148.52;55.71
3254;BME280;1639;42.804;23.342;2023-04-30T08:30:41;72296.03;;;-148.52;55.03
3254;BME280;1639;42.804;23.342;2023-04-30T08:33:07;72281.56;;;-148.52;53.08
3254;BME280;1639;42.804;23.342;2023-04-30T08:35:33;72252.63;;;-148.52;51.58
3254;BME280;1639;42.804;23.342;2023-04-30T08:37:58;72223.66;;;-148.52;50.84
3254;BME280;1639;42.804;23.342;2023-04-30T08:40:24;72182.31;;;-148.52;50.55
3254;BME280;1639;42.804;23.342;2023-04-30T08:42:57;72107.88;;;-148.52;50.24
3254;BME280;1639;42.804;23.342;2023-04-30T08:45:24;72035.50;;;-148.52;50.46
3254;BME280;1639;42.804;23.342;2023-04-30T08:47:50;71971.41;;;-148.52;47.39
3254;BME280;1639;42.804;23.342;2023-04-30T08:50:16;71921.78;;;-148.52;48.10
3254;BME280;1639;42.804;23.342;2023-04-30T08:52:42;71927.97;;;-148.52;44.98
3254;BME280;1639;42.804;23.342;2023-04-30T08:55:08;71886.63;;;-148.52;42.00
3254;BME280;1639;42.804;23.342;2023-04-30T08:57:35;71849.41;;;-148.52;41.87
3254;BME280;1639;42.804;23.342;2023-04-30T09:00:01;71828.72;;;-148.52;41.29
3254;BME280;1639;42.804;23.342;2023-04-30T09:02:30;71785.31;;;-148.52;43.31
3254;BME280;1639;42.804;23.342;2023-04-30T09:04:55;71764.63;;;-148.52;42.56
3254;BME280;1639;42.804;23.342;2023-04-30T09:07:21;71735.69;;;-148.52;42.40
3254;BME280;1639;42.804;23.342;2023-04-30T09:09:52;71760.50;;;-148.52;39.99
3254;BME280;1639;42.804;23.342;2023-04-30T09:12:18;71818.38;;;-148.52;40.56
3254;BME280;1639;42.804;23.342;2023-04-30T09:15:04;71841.13;;;-148.52;41.76
3254;BME280;1639;42.804;23.342;2023-04-30T09:17:30;71870.09;;;-148.52;42.35
3254;BME280;1639;42.804;23.342;2023-04-30T09:22:31;71936.25;;;-148.52;43.33
3254;BME280;1639;42.804;23.342;2023-04-30T09:24:57;71948.66;;;-148.52;42.02
3254;BME280;1639;42.804;23.342;2023-04-30T09:27:22;71967.25;;;-148.52;42.75
3254;BME280;1639;42.804;23.342;2023-04-30T09:29:48;71994.13;;;-148.52;42.96
3254;BME280;1639;42.804;23.342;2023-04-30T09:32:14;72000.34;;;-148.52;42.99
3254;BME280;1639;42.804;23.342;2023-04-30T09:34:40;72002.41;;;-148.52;42.57
3254;BME280;1639;42.804;23.342;2023-04-30T09:37:07;71998.28;;;-148.52;44.21
3254;BME280;1639;42.804;23.342;2023-04-30T09:39:32;72000.34;;;-148.52;42.31
3254;BME280;1639;42.804;23.342;2023-04-30T09:42:10;72047.91;;;-148.52;43.57
3254;BME280;1639;42.804;23.342;2023-04-30T09:44:38;72081.00;;;-148.52;46.25
3254;BME280;1639;42.804;23.342;2023-04-30T09:47:04;72171.97;;;-148.52;48.21
3254;BME280;1639;42.804;23.342;2023-04-30T09:49:29;72269.16;;;-148.52;50.37
3254;BME280;1639;42.804;23.342;2023-04-30T09:51:59;72314.66;;;-148.52;51.76
3254;BME280;1639;42.804;23.342;2023-04-30T09:54:29;72300.16;;;-148.52;51.28
3254;BME280;1639;42.804;23.342;2023-04-30T09:56:56;72248.47;;;-148.52;52.55
3254;BME280;1639;42.804;23.342;2023-04-30T09:59:27;72169.91;;;-148.52;53.87
3254;BME280;1639;42.804;23.342;2023-04-30T10:01:58;72155.44;;;-148.52;48.57
3254;BME280;1639;42.804;23.342;2023-04-30T10:04:27;72095.47;;;-148.52;50.65
3254;BME280;1639;42.804;23.342;2023-04-30T10:06:56;72058.25;;;-148.52;49.90
3254;BME280;1639;42.804;23.342;2023-04-30T10:09:25;72029.28;;;-148.52;48.40
3254;BME280;1639;42.804;23.342;2023-04-30T10:11:55;72058.25;;;-148.52;45.98
3254;BME280;1639;42.804;23.342;2023-04-30T10:14:22;72112.00;;;-148.52;47.29
3254;BME280;1639;42.804;23.342;2023-04-30T10:16:58;72143.03;;;-148.52;44.62
3254;BME280;1639;42.804;23.342;2023-04-30T10:19:30;72203.00;;;-148.52;47.28
3254;BME280;1639;42.804;23.342;2023-04-30T10:21:57;72240.22;;;-148.52;47.66
3254;BME280;1639;42.804;23.342;2023-04-30T10:24:23;72296.03;;;-148.52;50.17
3254;BME280;1639;42.804;23.342;2023-04-30T10:26:48;72304.31;;;-148.52;51.37
3254;BME280;1639;42.804;23.342;2023-04-30T10:29:15;72302.25;;;-148.52;51.54
3254;BME280;1639;42.804;23.342;2023-04-30T10:31:45;72293.97;;;-148.52;51.61
3254;BME280;1639;42.804;23.342;2023-04-30T10:34:47;72273.28;;;-148.52;53.19
3254;BME280;1639;42.804;23.342;2023-04-30T10:37:20;72258.81;;;-148.52;50.81
3254;BME280;1639;42.804;23.342;2023-04-30T10:39:49;72250.53;;;-148.52;53.27
3254;BME280;1639;42.804;23.342;2023-04-30T10:42:15;72227.78;;;-148.52;53.22
3254;BME280;1639;42.804;23.342;2023-04-30T10:44:40;72200.91;;;-148.52;56.32
3254;BME280;1639;42.804;23.342;2023-04-30T10:47:06;72153.34;;;-148.52;57.56
3254;BME280;1639;42.804;23.342;2023-04-30T10:49:32;72118.22;;;-148.52;52.53
3254;BME280;1639;42.804;23.342;2023-04-30T10:52:00;72169.91;;;-148.52;51.32
3254;BME280;1639;42.804;23.342;2023-04-30T10:54:27;72147.16;;;-148.52;51.70
3254;BME280;1639;42.804;23.342;2023-04-30T10:57:07;72128.53;;;-148.52;53.24
3254;BME280;1639;42.804;23.342;2023-04-30T10:59:35;72215.38;;;-148.52;54.80
3254;BME280;1639;42.804;23.342;2023-04-30T11:02:01;72298.09;;;-148.52;56.08
3254;BME280;1639;42.804;23.342;2023-04-30T11:04:27;72310.50;;;-148.52;58.22
3254;BME280;1639;42.804;23.342;2023-04-30T11:09:19;72389.09;;;-148.52;62.02
3254;BME280;1639;42.804;23.342;2023-04-30T11:11:45;72418.03;;;-148.52;61.63
3254;BME280;1639;42.804;23.342;2023-04-30T11:14:11;72457.34;;;-148.52;64.80
3254;BME280;1639;42.804;23.342;2023-04-30T11:16:48;72465.59;;;-148.52;58.72
3254;BME280;1639;42.804;23.342;2023-04-30T11:19:14;72484.22;;;-148.52;62.69
3254;BME280;1639;42.804;23.342;2023-04-30T11:21:41;72471.81;;;-148.52;63.74
3254;BME280;1639;42.804;23.342;2023-04-30T11:24:06;72475.94;;;-148.52;64.28
3254;BME280;1639;42.804;23.342;2023-04-30T11:27:06;72467.66;;;-148.52;69.48
3254;BME280;1639;42.804;23.342;2023-04-30T11:29:32;72422.19;;;-148.52;70.96
3254;BME280;1639;42.804;23.342;2023-04-30T11:32:03;72420.09;;;-148.52;79.45
3254;BME280;1639;42.804;23.342;2023-04-30T11:34:29;72447.00;;;-148.52;83.21
3254;BME280;1639;42.804;23.342;2023-04-30T11:36:57;72420.09;;;-148.52;86.09
3254;BME280;1639;42.804;23.342;2023-04-30T11:39:24;72395.28;;;-148.52;81.29
3254;BME280;1639;42.804;23.342;2023-04-30T11:41:51;72364.28;;;-148.52;79.79
3254;BME280;1639;42.804;23.342;2023-04-30T11:44:25;72337.41;;;-148.52;77.52
3254;BME280;1639;42.804;23.342;2023-04-30T11:46:50;72343.59;;;-148.52;74.13
3254;BME280;1639;42.804;23.342;2023-04-30T11:49:16;72360.13;;;-148.52;67.37
3254;BME280;1639;42.804;23.342;2023-04-30T11:51:41;72353.94;;;-148.52;69.36
3254;BME280;1639;42.804;23.342;2023-04-30T11:54:07;72389.09;;;-148.52;74.06
3254;BME280;1639;42.804;23.342;2023-04-30T11:56:37;72432.53;;;-148.52;72.07
3254;BME280;1639;42.804;23.342;2023-04-30T11:59:09;72467.66;;;-148.52;76.25
3254;BME280;1639;42.804;23.342;2023-04-30T12:01:35;72513.16;;;-148.52;83.34
3254;BME280;1639;42.804;23.342;2023-04-30T12:04:01;72531.78;;;-148.52;85.21
3254;BME280;1639;42.804;23.342;2023-04-30T12:06:31;72525.56;;;-148.52;88.26
3254;BME280;1639;42.804;23.342;2023-04-30T12:08:58;72564.88;;;-148.52;91.12
3254;BME280;1639;42.804;23.342;2023-04-30T12:11:27;72554.53;;;-148.52;91.88
3254;BME280;1639;42.804;23.342;2023-04-30T12:13:54;72537.97;;;-148.52;89.47
3254;BME280;1639;42.804;23.342;2023-04-30T12:16:20;72517.31;;;-148.52;93.15
3254;BME280;1639;42.804;23.342;2023-04-30T12:18:46;72480.09;;;-148.52;100.00
3254;BME280;1639;42.804;23.342;2023-04-30T12:21:12;72509.03;;;-148.52;96.91
3254;BME280;1639;42.804;23.342;2023-04-30T12:23:38;72480.09;;;-148.52;92.94
3254;BME280;1639;42.804;23.342;2023-04-30T12:26:04;72453.19;;;-148.52;93.41
3254;BME280;1639;42.804;23.342;2023-04-30T12:28:29;72426.31;;;-148.52;90.66
3254;BME280;1639;42.804;23.342;2023-04-30T12:30:54;72413.91;;;-148.52;84.08
3254;BME280;1639;42.804;23.342;2023-04-30T12:33:20;72399.44;;;-148.52;79.83
3254;BME280;1639;42.804;23.342;2023-04-30T12:35:45;72384.97;;;-148.52;80.99
3254;BME280;1639;42.804;23.342;2023-04-30T12:38:15;72362.22;;;-148.52;85.64
3254;BME280;1639;42.804;23.342;2023-04-30T12:40:45;72343.59;;;-148.52;88.69
3254;BME280;1639;42.804;23.342;2023-04-30T12:43:14;72327.06;;;-148.52;85.29
3254;BME280;1639;42.804;23.342;2023-04-30T12:45:51;72287.75;;;-148.52;87.93
3254;BME280;1639;42.804;23.342;2023-04-30T12:48:18;72269.16;;;-148.52;83.46
3254;BME280;1639;42.804;23.342;2023-04-30T12:50:50;72275.34;;;-148.52;76.31
3254;BME280;1639;42.804;23.342;2023-04-30T12:53:15;72269.16;;;-148.52;70.27
3254;BME280;1639;42.804;23.342;2023-04-30T12:55:40;72250.53;;;-148.52;71.84
3254;BME280;1639;42.804;23.342;2023-04-30T13:03:07;72192.66;;;-148.52;63.52
3254;BME280;1639;42.804;23.342;2023-04-30T13:05:33;72178.16;;;-148.52;61.38
3254;BME280;1639;42.804;23.342;2023-04-30T13:08:02;72153.34;;;-148.52;61.82